Etusivu
METAR-TAF:

METAR-TAF

Lentoasemat :

Tri-Cities Airport

Pasco, Washington, Yhdysvallat

Leveyspiiri: 46-16-11N, Pituuspiiri: 119-07-00W, korkeus merenpinnasta: 124 m

Tämänhetkinen sää

Tämä raportti tehtiin 42 minuuttia sitten, kello 17.53 UTC
Lämpötila 25°C
Kosteus 26%
Ilmanpaine 1019 hPa
selkeää

METAR: KPSC 141753Z AUTO CLR 25/04 A3009 RMK AO2 SLP187 T02500044 58000 PWINO RVRNO $

Aika: 11:35 (18:35 UTC)

Sääennuste

Tämä raportti tehtiin 58 minuuttia sitten, kello 17.37 UTC
Ennuste voimassa 14. päivästä klo 18 UTC - 15. päivään klo 18 UTC
Tuuli 4 kn eri suunnista
Näkyvyys: 10 km
selkeää
From 15. päivästä klo 1730 UTC
Tuuli 5 kn luoteesta
Näkyvyys: 10 km
selkeää

TAF: KPSC 141737Z 1418/1518 VRB04KT P6SM SKC FM151730 31005KT P6SM SKC

Säähavainnot ja -ennusteet yli 4000 lentoasemalta (METAR- ja TAF-raportit).

Käytössä olevat sääasemat on merkitty karttaan keltaisilla ja punaisilla pisteillä.

Aseta hiiri pisteen päälle nähdäksesi sääaseman nimen.

Klikkaa sitten nähdäksesi säähavainnot ja -ennusteet.

Kartan vaihtaminen: klikkaa mustalla rastilla varustettuja vihreitä pisteitä, niin voit zoomata sisään; viivalla varustettua vihreää pistettä, niin voit zoomata ulos tai vihreitä nuolia, niin pääset viereisille kartoille.


METAR-TAF: